createdAt,value
2022-11-29T00:00:23.183Z,651.34
2022-11-29T00:03:32.295Z,635.28
2022-11-29T00:06:40.378Z,636.66
2022-11-29T00:09:47.300Z,630.86
2022-11-29T00:12:53.488Z,619.40
2022-11-29T00:16:06.743Z,620.68
2022-11-29T00:19:15.641Z,614.89
2022-11-29T00:22:23.980Z,611.56
2022-11-29T00:25:30.637Z,601.03
2022-11-29T00:28:39.761Z,595.17
2022-11-29T00:31:49.011Z,586.09
2022-11-29T00:34:59.390Z,583.30
2022-11-29T00:38:05.842Z,581.88
2022-11-29T00:41:14.547Z,595.84
2022-11-29T00:44:20.960Z,606.54
2022-11-29T00:47:30.846Z,611.12
2022-11-29T00:50:36.969Z,640.16
2022-11-29T00:53:44.113Z,646.91
2022-11-29T00:56:50.209Z,636.05
2022-11-29T00:59:57.302Z,640.21
2022-11-29T01:03:06.248Z,639.63
2022-11-29T01:06:16.395Z,631.44
2022-11-29T01:09:23.373Z,630.94
2022-11-29T01:12:30.234Z,630.78
2022-11-29T01:15:36.847Z,624.02
2022-11-29T01:18:47.232Z,635.44
2022-11-29T01:21:53.357Z,638.31
2022-11-29T01:25:00.196Z,644.25
2022-11-29T01:28:08.009Z,645.45
2022-11-29T01:31:19.019Z,648.43
2022-11-29T01:34:27.782Z,674.16
2022-11-29T01:37:35.895Z,669.38
2022-11-29T01:40:42.052Z,667.80
2022-11-29T01:44:05.445Z,671.92
2022-11-29T01:47:14.725Z,671.11
2022-11-29T01:50:25.123Z,641.90
2022-11-29T01:53:32.784Z,633.98
2022-11-29T01:56:42.150Z,631.69
2022-11-29T01:59:53.674Z,632.08
2022-11-29T02:03:12.508Z,626.01
2022-11-29T02:06:21.865Z,639.23
2022-11-29T02:09:29.067Z,637.80
2022-11-29T02:12:57.451Z,651.88
2022-11-29T02:16:16.140Z,654.48
2022-11-29T02:20:02.399Z,662.18
2022-11-29T02:24:02.676Z,670.02
2022-11-29T02:28:08.800Z,668.89
2022-11-29T02:31:58.161Z,659.86
2022-11-29T02:35:31.835Z,648.27
2022-11-29T02:39:32.027Z,642.09
2022-11-29T02:48:02.944Z,613.84
2022-11-29T02:51:25.149Z,634.96
2022-11-29T02:54:46.410Z,637.10
2022-11-29T02:58:09.418Z,644.92
2022-11-29T03:01:28.965Z,646.69
2022-11-29T03:04:53.384Z,641.57
2022-11-29T03:08:19.678Z,647.69
2022-11-29T03:11:42.526Z,634.15
2022-11-29T03:15:05.582Z,627.81
2022-11-29T03:18:37.088Z,626.43
2022-11-29T03:22:08.770Z,641.09
2022-11-29T03:25:27.466Z,632.18
2022-11-29T03:28:44.603Z,633.39
2022-11-29T03:32:03.582Z,623.20
2022-11-29T03:35:18.289Z,621.20
2022-11-29T03:38:40.171Z,636.64
2022-11-29T03:41:56.378Z,618.15
2022-11-29T03:45:14.864Z,617.87
2022-11-29T03:48:32.470Z,616.93
2022-11-29T03:51:57.578Z,624.26
2022-11-29T03:55:34.567Z,598.58
2022-11-29T03:59:00.585Z,596.03
2022-11-29T04:02:48.874Z,608.19
2022-11-29T04:06:33.614Z,604.48
2022-11-29T04:10:17.020Z,587.19
2022-11-29T04:14:14.219Z,615.28
2022-11-29T04:18:05.676Z,621.93
2022-11-29T04:21:45.171Z,619.23
2022-11-29T04:25:44.459Z,594.32
2022-11-29T04:29:36.690Z,585.96
2022-11-29T04:33:33.493Z,603.35
2022-11-29T04:37:26.517Z,605.45
2022-11-29T04:41:08.700Z,597.53
2022-11-29T04:44:44.090Z,607.25
2022-11-29T04:48:09.413Z,630.74
2022-11-29T04:51:38.430Z,655.17
2022-11-29T04:55:00.271Z,628.81
2022-11-29T04:58:26.340Z,623.43
2022-11-29T05:01:53.960Z,633.38
2022-11-29T05:05:21.585Z,598.44
2022-11-29T05:08:47.966Z,654.24
2022-11-29T05:12:15.181Z,741.24
2022-11-29T05:15:53.436Z,696.51
2022-11-29T05:19:31.746Z,692.79
2022-11-29T05:22:59.352Z,672.99
2022-11-29T05:26:19.659Z,636.83
2022-11-29T05:29:43.337Z,605.57
2022-11-29T05:33:15.356Z,616.90
2022-11-29T05:36:40.944Z,618.69
2022-11-29T05:40:21.042Z,641.79
2022-11-29T05:44:04.709Z,636.60
2022-11-29T05:47:21.377Z,617.93
2022-11-29T05:50:41.065Z,609.59
2022-11-29T05:54:07.429Z,596.84
2022-11-29T05:57:31.623Z,581.90
2022-11-29T06:00:52.761Z,596.78
2022-11-29T06:04:13.311Z,617.72
2022-11-29T06:07:38.369Z,627.93
2022-11-29T06:11:00.980Z,619.07
2022-11-29T06:14:22.019Z,630.71
2022-11-29T06:18:00.148Z,645.81
2022-11-29T06:21:26.071Z,625.25
2022-11-29T06:25:04.556Z,620.75
2022-11-29T06:28:43.005Z,596.71
2022-11-29T06:31:59.218Z,577.87
2022-11-29T06:35:22.870Z,573.78
2022-11-29T06:38:33.021Z,585.64
2022-11-29T06:41:42.863Z,657.98
2022-11-29T06:44:50.466Z,768.46
2022-11-29T06:48:06.952Z,742.37
2022-11-29T06:51:29.155Z,754.62
2022-11-29T06:55:03.487Z,698.58
2022-11-29T06:58:40.000Z,699.75
2022-11-29T07:02:00.723Z,695.33
2022-11-29T07:05:24.982Z,632.86
2022-11-29T07:08:32.010Z,576.72
2022-11-29T07:11:40.214Z,547.01
2022-11-29T07:14:50.253Z,573.66
2022-11-29T07:18:18.182Z,586.67
2022-11-29T07:21:49.058Z,618.23
2022-11-29T07:25:14.200Z,622.49
2022-11-29T07:28:44.539Z,647.24
2022-11-29T07:32:12.218Z,676.00
2022-11-29T07:35:30.313Z,670.22
2022-11-29T07:39:03.181Z,671.39
2022-11-29T07:42:24.672Z,690.00
2022-11-29T07:45:36.377Z,678.33
2022-11-29T07:48:45.831Z,656.47
2022-11-29T07:51:52.576Z,633.48
2022-11-29T07:54:59.916Z,612.99
2022-11-29T07:58:06.233Z,622.31
2022-11-29T08:01:13.297Z,641.52
2022-11-29T08:04:23.258Z,659.52
2022-11-29T08:07:29.700Z,642.29
2022-11-29T08:10:37.103Z,642.36
2022-11-29T08:13:43.196Z,662.95
2022-11-29T08:16:50.166Z,731.34
2022-11-29T08:20:02.651Z,636.15
2022-11-29T08:23:15.460Z,600.32
2022-11-29T08:26:29.732Z,582.08
2022-11-29T08:29:38.387Z,600.04
2022-11-29T08:32:48.530Z,602.63
2022-11-29T08:36:09.046Z,610.31
2022-11-29T08:39:15.305Z,635.32
2022-11-29T08:42:22.287Z,630.00
2022-11-29T08:45:28.702Z,631.60
2022-11-29T08:48:37.237Z,650.04
2022-11-29T08:51:46.202Z,715.57
2022-11-29T08:54:50.545Z,737.30
2022-11-29T08:58:03.204Z,692.11
2022-11-29T09:01:18.588Z,678.32
2022-11-29T09:04:25.356Z,666.75
2022-11-29T09:07:35.266Z,648.99
2022-11-29T09:10:42.776Z,688.58
2022-11-29T09:13:53.394Z,674.54
2022-11-29T09:16:59.418Z,658.30
2022-11-29T09:20:08.587Z,625.10
2022-11-29T09:23:17.234Z,637.13
2022-11-29T09:26:24.283Z,640.75
2022-11-29T09:29:30.367Z,632.09
2022-11-29T09:32:38.793Z,618.59
2022-11-29T09:35:45.492Z,585.72
2022-11-29T09:38:55.104Z,610.95
2022-11-29T09:42:30.565Z,729.88
2022-11-29T09:45:48.100Z,682.62
2022-11-29T09:49:26.000Z,622.18
2022-11-29T09:52:52.988Z,532.23
2022-11-29T09:56:26.243Z,591.66
2022-11-29T09:59:43.017Z,640.06
2022-11-29T10:02:57.045Z,623.67
2022-11-29T10:06:14.935Z,652.89
2022-11-29T10:09:34.208Z,634.00
2022-11-29T10:15:59.884Z,560.72
2022-11-29T10:19:22.835Z,557.15
2022-11-29T10:22:43.927Z,596.59
2022-11-29T10:25:54.052Z,622.12
2022-11-29T10:29:01.972Z,614.08
2022-11-29T10:32:19.964Z,582.67
2022-11-29T10:35:27.568Z,701.27
2022-11-29T10:38:34.428Z,717.98
2022-11-29T10:41:40.380Z,654.00
2022-11-29T10:44:47.610Z,668.93
2022-11-29T10:48:00.908Z,637.93
2022-11-29T10:51:20.557Z,610.48
2022-11-29T10:54:43.112Z,595.80
2022-11-29T10:58:13.045Z,586.80
2022-11-29T11:01:20.704Z,566.77
2022-11-29T11:04:46.623Z,542.51
2022-11-29T11:08:01.921Z,520.58
2022-11-29T11:11:11.976Z,490.15
2022-11-29T11:14:25.697Z,480.31
2022-11-29T11:17:37.880Z,477.74
2022-11-29T11:20:56.552Z,475.56
2022-11-29T11:24:06.485Z,480.66
2022-11-29T11:27:12.740Z,515.82
2022-11-29T11:30:27.493Z,521.18
2022-11-29T11:33:37.010Z,533.87
2022-11-29T11:36:46.733Z,549.16
2022-11-29T11:39:56.961Z,542.69
2022-11-29T11:43:06.260Z,509.96
2022-11-29T11:46:17.751Z,512.66
2022-11-29T11:49:33.930Z,507.18
2022-11-29T11:52:50.892Z,483.29
2022-11-29T11:56:05.125Z,469.91
2022-11-29T11:59:24.680Z,482.40
2022-11-29T12:02:42.356Z,470.13
2022-11-29T12:05:52.026Z,478.74
2022-11-29T12:09:14.168Z,471.08
2022-11-29T12:12:28.334Z,479.58
2022-11-29T12:15:45.586Z,451.41
2022-11-29T12:18:59.353Z,451.14
2022-11-29T12:22:21.178Z,433.77
2022-11-29T12:25:43.265Z,438.86
2022-11-29T12:28:51.568Z,430.08
2022-11-29T12:32:25.646Z,419.39
2022-11-29T12:35:55.369Z,426.95
2022-11-29T12:39:28.496Z,421.10
2022-11-29T12:42:58.219Z,409.91
2022-11-29T12:46:17.578Z,392.85
2022-11-29T12:49:43.774Z,379.44
2022-11-29T12:53:09.310Z,381.95
2022-11-29T12:56:25.101Z,362.08
2022-11-29T13:00:01.668Z,355.90
2022-11-29T13:03:30.771Z,353.12
2022-11-29T13:06:52.568Z,362.54
2022-11-29T13:10:31.403Z,376.06
2022-11-29T13:13:45.733Z,392.89
2022-11-29T13:17:03.934Z,413.21
2022-11-29T13:20:31.881Z,438.47
2022-11-29T13:24:11.651Z,454.71
2022-11-29T13:27:26.368Z,465.11
2022-11-29T13:30:34.524Z,471.75
2022-11-29T13:34:01.885Z,480.40
2022-11-29T13:37:26.781Z,489.19
2022-11-29T13:40:48.109Z,500.82
2022-11-29T13:44:11.421Z,508.25
2022-11-29T13:47:21.227Z,504.03
2022-11-29T13:50:46.824Z,503.42
2022-11-29T13:53:54.533Z,511.07
2022-11-29T13:57:09.876Z,513.31
2022-11-29T14:00:32.706Z,509.00
2022-11-29T14:03:43.527Z,501.28
2022-11-29T14:07:05.829Z,503.64
2022-11-29T14:10:29.437Z,502.56
2022-11-29T14:13:52.384Z,504.34
2022-11-29T14:17:04.363Z,511.05
2022-11-29T14:20:57.264Z,535.23
2022-11-29T14:24:43.135Z,529.89
2022-11-29T14:28:07.037Z,574.31
2022-11-29T14:31:14.648Z,623.35
2022-11-29T14:34:48.876Z,608.18
2022-11-29T14:38:15.940Z,522.23
2022-11-29T14:41:41.202Z,538.65
2022-11-29T14:44:54.117Z,591.43
2022-11-29T14:48:02.040Z,608.61
2022-11-29T14:51:17.614Z,598.44
2022-11-29T14:54:23.995Z,585.57
2022-11-29T14:58:15.808Z,540.59
2022-11-29T15:01:27.447Z,500.64
2022-11-29T15:04:38.908Z,472.00
2022-11-29T15:08:00.360Z,450.06
2022-11-29T15:11:20.944Z,475.74
2022-11-29T15:14:50.450Z,501.69
2022-11-29T15:18:22.767Z,510.82
2022-11-29T15:21:43.064Z,522.16
2022-11-29T15:24:57.350Z,472.71
2022-11-29T15:28:06.064Z,442.88
2022-11-29T15:31:21.782Z,454.97
2022-11-29T15:34:36.683Z,449.26
2022-11-29T15:37:48.662Z,465.56
2022-11-29T15:40:58.730Z,465.31
2022-11-29T15:44:08.964Z,458.11
2022-11-29T15:47:24.275Z,476.10
2022-11-29T15:50:38.009Z,479.34
2022-11-29T15:54:00.455Z,497.50
2022-11-29T15:57:29.408Z,484.91
2022-11-29T16:00:36.641Z,451.05
2022-11-29T16:03:49.873Z,439.66
2022-11-29T16:07:00.756Z,412.49
2022-11-29T16:10:21.266Z,409.35
2022-11-29T16:13:38.393Z,409.37
2022-11-29T16:16:52.692Z,423.23
2022-11-29T16:20:31.587Z,428.55
2022-11-29T16:23:43.690Z,446.03
2022-11-29T16:26:53.480Z,456.58
2022-11-29T16:30:01.700Z,504.72
2022-11-29T16:33:14.028Z,474.89
2022-11-29T16:36:31.143Z,503.94
2022-11-29T16:39:42.628Z,475.84
2022-11-29T16:43:24.387Z,414.50
2022-11-29T16:46:42.167Z,420.83
2022-11-29T16:50:09.231Z,425.26
2022-11-29T16:53:37.825Z,438.97
2022-11-29T16:56:50.683Z,443.73
2022-11-29T16:59:57.147Z,478.50
2022-11-29T17:03:04.539Z,462.54
2022-11-29T17:06:15.636Z,435.29
2022-11-29T17:09:30.801Z,398.93
2022-11-29T17:12:43.446Z,385.97
2022-11-29T17:15:54.854Z,403.15
2022-11-29T17:19:01.132Z,434.57
2022-11-29T17:22:09.614Z,401.10
2022-11-29T17:25:16.260Z,411.65
2022-11-29T17:28:26.352Z,397.35
2022-11-29T17:31:33.953Z,418.30
2022-11-29T17:34:43.038Z,415.26
2022-11-29T17:37:50.071Z,427.52
2022-11-29T17:40:57.621Z,430.33
2022-11-29T17:44:07.213Z,437.52
2022-11-29T17:47:14.502Z,448.65
2022-11-29T17:50:21.244Z,438.39
2022-11-29T17:53:28.675Z,437.49
2022-11-29T17:56:35.848Z,441.74
2022-11-29T17:59:45.647Z,458.71
2022-11-29T18:02:51.992Z,462.33
2022-11-29T18:06:02.939Z,451.29
2022-11-29T18:09:13.632Z,441.90
2022-11-29T18:12:20.806Z,403.61
2022-11-29T18:18:41.393Z,419.44
2022-11-29T18:21:49.287Z,428.02
2022-11-29T18:25:15.882Z,445.79
2022-11-29T18:28:22.459Z,497.44
2022-11-29T18:31:35.284Z,494.31
2022-11-29T18:34:45.244Z,464.49
2022-11-29T18:38:14.034Z,480.37
2022-11-29T18:41:22.698Z,467.41
2022-11-29T18:44:30.089Z,502.52
2022-11-29T18:47:36.962Z,477.76
2022-11-29T18:50:46.759Z,515.22
2022-11-29T18:53:53.831Z,485.93
2022-11-29T18:56:59.976Z,464.66
2022-11-29T19:00:09.257Z,533.47
2022-11-29T19:03:15.230Z,566.91
2022-11-29T19:06:28.322Z,559.13
2022-11-29T19:09:34.395Z,522.54
2022-11-29T19:12:41.307Z,524.36
2022-11-29T19:15:54.154Z,523.42
2022-11-29T19:19:03.951Z,532.22
2022-11-29T19:22:13.660Z,552.01
2022-11-29T19:25:20.685Z,598.06
2022-11-29T19:28:27.470Z,566.80
2022-11-29T19:31:35.004Z,492.07
2022-11-29T19:34:41.709Z,486.88
2022-11-29T19:37:51.573Z,487.12
2022-11-29T19:40:57.641Z,481.99
2022-11-29T19:44:08.509Z,475.18
2022-11-29T19:47:15.127Z,466.36
2022-11-29T19:50:22.156Z,473.97
2022-11-29T19:53:31.147Z,499.12
2022-11-29T19:56:39.104Z,513.08
2022-11-29T19:59:45.643Z,512.39
2022-11-29T20:02:52.988Z,517.98
2022-11-29T20:05:59.802Z,512.24
2022-11-29T20:09:10.773Z,493.87
2022-11-29T20:12:16.895Z,500.84
2022-11-29T20:15:23.845Z,494.32
2022-11-29T20:18:34.846Z,526.36
2022-11-29T20:21:48.902Z,489.01
2022-11-29T20:24:58.121Z,470.49
2022-11-29T20:28:08.118Z,484.78
2022-11-29T20:31:21.549Z,472.44
2022-11-29T20:34:29.465Z,504.14
2022-11-29T20:38:07.482Z,530.77
2022-11-29T20:41:30.266Z,597.50
2022-11-29T20:44:42.241Z,593.80
2022-11-29T20:47:59.795Z,610.77
2022-11-29T20:51:07.389Z,573.93
2022-11-29T20:54:15.604Z,660.89
2022-11-29T20:57:25.149Z,555.23
2022-11-29T21:00:32.259Z,503.38
2022-11-29T21:03:38.542Z,549.28
2022-11-29T21:06:45.929Z,578.56
2022-11-29T21:09:55.438Z,665.37
2022-11-29T21:13:08.474Z,615.09
2022-11-29T21:16:17.854Z,496.31
2022-11-29T21:19:29.578Z,475.45
2022-11-29T21:22:54.787Z,481.92
2022-11-29T21:26:16.187Z,446.48
2022-11-29T21:29:27.133Z,487.18
2022-11-29T21:32:35.768Z,493.54
2022-11-29T21:35:43.139Z,460.19
2022-11-29T21:38:54.892Z,457.86
2022-11-29T21:42:01.484Z,429.18
2022-11-29T21:45:15.633Z,425.80
2022-11-29T21:48:34.695Z,455.88
2022-11-29T21:51:41.618Z,472.66
2022-11-29T21:54:48.475Z,450.40
2022-11-29T21:57:56.059Z,457.89
2022-11-29T22:01:14.304Z,444.51
2022-11-29T22:04:21.956Z,453.29
2022-11-29T22:07:28.162Z,428.00
2022-11-29T22:10:35.322Z,492.46
2022-11-29T22:14:03.939Z,581.16
2022-11-29T22:17:13.403Z,552.70
2022-11-29T22:20:19.753Z,528.39
2022-11-29T22:23:26.622Z,515.85
2022-11-29T22:26:32.744Z,481.61
2022-11-29T22:29:39.527Z,431.51
2022-11-29T22:32:48.410Z,425.99
2022-11-29T22:35:55.327Z,405.40
2022-11-29T22:39:01.591Z,406.73
2022-11-29T22:42:08.709Z,399.63
2022-11-29T22:45:15.123Z,407.29
2022-11-29T22:48:24.612Z,403.87
2022-11-29T22:51:34.008Z,401.16
2022-11-29T22:54:40.911Z,388.57
2022-11-29T22:57:47.024Z,374.89
2022-11-29T23:00:53.999Z,355.59
2022-11-29T23:04:06.327Z,353.98
2022-11-29T23:07:13.209Z,361.51
2022-11-29T23:10:19.548Z,365.13
2022-11-29T23:13:28.273Z,361.88
2022-11-29T23:16:36.000Z,365.47
2022-11-29T23:19:46.015Z,357.43
2022-11-29T23:22:52.216Z,356.10
2022-11-29T23:25:59.159Z,349.68
2022-11-29T23:29:06.237Z,347.76
2022-11-29T23:32:13.300Z,351.88
2022-11-29T23:35:24.298Z,350.09
2022-11-29T23:38:31.831Z,353.16
2022-11-29T23:41:39.608Z,351.57
2022-11-29T23:44:46.655Z,372.88
2022-11-29T23:47:53.053Z,362.15
2022-11-29T23:51:02.675Z,361.88
2022-11-29T23:54:09.182Z,360.10
2022-11-29T23:57:16.040Z,371.17
